createdAt,value
2023-03-20T00:02:26.138Z,97806.71
2023-03-20T00:04:54.252Z,97809.88
2023-03-20T00:07:22.421Z,97807.38
2023-03-20T00:09:51.025Z,97804.13
2023-03-20T00:12:25.555Z,97803.33
2023-03-20T00:14:53.879Z,97806.23
2023-03-20T00:17:22.240Z,97805.08
2023-03-20T00:19:50.769Z,97807.85
2023-03-20T00:22:19.805Z,97804.23
2023-03-20T00:24:48.582Z,97807.08
2023-03-20T00:27:17.988Z,97801.17
2023-03-20T00:29:46.120Z,97797.40
2023-03-20T00:32:15.328Z,97798.16
2023-03-20T00:34:43.478Z,97795.48
2023-03-20T00:37:12.026Z,97792.52
2023-03-20T00:39:41.760Z,97791.22
2023-03-20T00:42:24.881Z,97788.91
2023-03-20T00:44:56.129Z,97788.41
2023-03-20T00:47:35.370Z,97790.77
2023-03-20T00:50:16.057Z,97789.80
2023-03-20T00:52:44.661Z,97791.57
2023-03-20T00:55:13.715Z,97786.02
2023-03-20T00:57:49.707Z,97781.86
2023-03-20T01:00:25.749Z,97785.83
2023-03-20T01:02:56.776Z,97786.52
2023-03-20T01:05:27.720Z,97786.17
2023-03-20T01:07:56.663Z,97782.77
2023-03-20T01:10:30.110Z,97781.20
2023-03-20T01:13:01.600Z,97778.81
2023-03-20T01:15:34.631Z,97777.52
2023-03-20T01:18:03.822Z,97778.67
2023-03-20T01:20:32.391Z,97781.79
2023-03-20T01:23:00.361Z,97782.58
2023-03-20T01:25:28.908Z,97781.61
2023-03-20T01:27:58.209Z,97788.45
2023-03-20T01:30:31.531Z,97790.94
2023-03-20T01:33:01.998Z,97795.69
2023-03-20T01:35:31.091Z,97794.50
2023-03-20T01:38:02.471Z,97796.90
2023-03-20T01:40:41.685Z,97800.00
2023-03-20T01:43:16.036Z,97803.54
2023-03-20T01:46:20.166Z,97801.91
2023-03-20T01:48:50.159Z,97800.17
2023-03-20T01:51:30.951Z,97795.19
2023-03-20T01:54:16.147Z,97792.52
2023-03-20T01:57:08.654Z,97795.04
2023-03-20T01:59:50.050Z,97799.72
2023-03-20T02:02:23.998Z,97799.95
2023-03-20T02:04:56.251Z,97790.70
2023-03-20T02:07:24.747Z,97790.68
2023-03-20T02:10:18.556Z,97797.37
2023-03-20T02:12:54.561Z,97791.17
2023-03-20T02:15:32.052Z,97781.84
2023-03-20T02:18:15.439Z,97782.39
2023-03-20T02:20:50.834Z,97779.73
2023-03-20T02:23:37.337Z,97784.18
2023-03-20T02:26:34.407Z,97783.08
2023-03-20T02:29:09.545Z,97783.01
2023-03-20T02:31:47.664Z,97780.48
2023-03-20T02:34:34.305Z,97784.32
2023-03-20T02:37:36.446Z,97783.88
2023-03-20T02:40:44.122Z,97774.98
2023-03-20T02:43:28.908Z,97773.78
2023-03-20T02:46:08.021Z,97778.52
2023-03-20T02:49:21.293Z,97774.91
2023-03-20T02:52:00.363Z,97766.30
2023-03-20T02:54:37.332Z,97760.26
2023-03-20T02:57:11.899Z,97763.61
2023-03-20T02:59:54.407Z,97759.77
2023-03-20T03:02:26.295Z,97752.02
2023-03-20T03:04:59.791Z,97753.29
2023-03-20T03:07:33.515Z,97755.66
2023-03-20T03:10:08.245Z,97751.67
2023-03-20T03:12:41.238Z,97751.73
2023-03-20T03:15:27.699Z,97748.13
2023-03-20T03:17:58.392Z,97742.66
2023-03-20T03:20:32.639Z,97739.65
2023-03-20T03:23:02.147Z,97743.54
2023-03-20T03:25:34.654Z,97745.33
2023-03-20T03:28:05.824Z,97746.81
2023-03-20T03:30:39.441Z,97749.38
2023-03-20T03:33:23.549Z,97749.46
2023-03-20T03:36:00.772Z,97745.91
2023-03-20T03:39:07.937Z,97740.70
2023-03-20T03:41:42.843Z,97741.85
2023-03-20T03:44:33.915Z,97745.77
2023-03-20T03:47:12.880Z,97743.09
2023-03-20T03:49:48.123Z,97743.92
2023-03-20T03:52:24.903Z,97745.60
2023-03-20T03:54:59.947Z,97747.30
2023-03-20T03:57:49.527Z,97749.36
2023-03-20T04:00:23.703Z,97748.58
2023-03-20T04:02:56.198Z,97747.69
2023-03-20T04:05:31.572Z,97743.60
2023-03-20T04:08:02.366Z,97741.52
2023-03-20T04:10:30.363Z,97741.29
2023-03-20T04:12:58.367Z,97737.81
2023-03-20T04:15:27.924Z,97736.44
2023-03-20T04:17:56.688Z,97738.19
2023-03-20T04:20:24.950Z,97741.41
2023-03-20T04:22:53.423Z,97745.82
2023-03-20T04:25:26.038Z,97742.68
2023-03-20T04:27:56.363Z,97746.21
2023-03-20T04:30:39.931Z,97752.19
2023-03-20T04:33:27.640Z,97752.29
2023-03-20T04:36:21.604Z,97753.13
2023-03-20T04:38:51.094Z,97759.36
2023-03-20T04:41:21.211Z,97759.70
2023-03-20T04:43:55.128Z,97759.95
2023-03-20T04:46:24.895Z,97763.33
2023-03-20T04:48:52.918Z,97769.30
2023-03-20T04:51:41.289Z,97770.72
2023-03-20T04:54:11.407Z,97771.81
2023-03-20T04:56:40.606Z,97769.95
2023-03-20T04:59:28.529Z,97765.95
2023-03-20T05:01:57.693Z,97765.29
2023-03-20T05:04:25.805Z,97760.09
2023-03-20T05:06:53.976Z,97759.27
2023-03-20T05:09:24.684Z,97764.75
2023-03-20T05:11:53.942Z,97763.31
2023-03-20T05:14:51.314Z,97770.75
2023-03-20T05:17:37.154Z,97773.54
2023-03-20T05:20:36.377Z,97781.67
2023-03-20T05:23:08.041Z,97784.17
2023-03-20T05:25:57.939Z,97781.13
2023-03-20T05:28:44.261Z,97781.96
2023-03-20T05:31:19.235Z,97781.06
2023-03-20T05:33:57.453Z,97777.98
2023-03-20T05:36:42.506Z,97784.14
2023-03-20T05:39:25.481Z,97785.81
2023-03-20T05:42:20.515Z,97781.30
2023-03-20T05:45:07.166Z,97780.79
2023-03-20T05:47:56.457Z,97768.26
2023-03-20T05:50:43.973Z,97770.08
2023-03-20T05:53:28.711Z,97772.83
2023-03-20T05:56:17.239Z,97773.35
2023-03-20T05:59:08.400Z,97772.98
2023-03-20T06:02:05.935Z,97764.95
2023-03-20T06:04:37.456Z,97761.73
2023-03-20T06:07:20.137Z,97772.06
2023-03-20T06:09:55.875Z,97778.08
2023-03-20T06:12:24.405Z,97778.41
2023-03-20T06:15:14.607Z,97779.30
2023-03-20T06:17:46.107Z,97779.98
2023-03-20T06:20:19.371Z,97790.71
2023-03-20T06:22:49.989Z,97792.38
2023-03-20T06:25:18.878Z,97791.89
2023-03-20T06:27:48.762Z,97790.29
2023-03-20T06:30:17.870Z,97790.27
2023-03-20T06:32:48.296Z,97791.39
2023-03-20T06:35:19.152Z,97790.83
2023-03-20T06:37:58.232Z,97792.95
2023-03-20T06:40:28.226Z,97791.31
2023-03-20T06:42:58.577Z,97789.83
2023-03-20T06:45:34.308Z,97794.36
2023-03-20T06:48:11.286Z,97792.65
2023-03-20T06:50:39.847Z,97783.25
2023-03-20T06:53:08.332Z,97783.25
2023-03-20T06:55:48.810Z,97782.32
2023-03-20T06:58:17.283Z,97782.66
2023-03-20T07:00:47.219Z,97788.02
2023-03-20T07:03:17.046Z,97789.75
2023-03-20T07:05:47.597Z,97788.73
2023-03-20T07:08:16.067Z,97785.77
2023-03-20T07:10:44.839Z,97789.55
2023-03-20T07:13:14.546Z,97794.48
2023-03-20T07:16:01.248Z,97795.69
2023-03-20T07:18:34.527Z,97797.27
2023-03-20T07:21:05.458Z,97791.59
2023-03-20T07:23:34.858Z,97791.69
2023-03-20T07:26:11.665Z,97797.41
2023-03-20T07:28:43.312Z,97800.55
2023-03-20T07:31:22.579Z,97800.52
2023-03-20T07:33:54.858Z,97799.55
2023-03-20T07:36:23.715Z,97798.26
2023-03-20T07:38:51.751Z,97795.80
2023-03-20T07:41:20.428Z,97801.13
2023-03-20T07:43:57.940Z,97800.65
2023-03-20T07:46:47.670Z,97795.89
2023-03-20T07:49:20.585Z,97795.35
2023-03-20T07:51:50.572Z,97789.33
2023-03-20T07:54:22.868Z,97792.11
2023-03-20T07:56:51.332Z,97794.95
2023-03-20T07:59:22.788Z,97788.97
2023-03-20T08:01:52.640Z,97790.84
2023-03-20T08:04:22.674Z,97792.98
2023-03-20T08:06:51.303Z,97794.02
2023-03-20T08:09:19.946Z,97795.77
2023-03-20T08:11:48.429Z,97797.05
2023-03-20T08:14:17.241Z,97793.36
2023-03-20T08:16:45.476Z,97789.98
2023-03-20T08:19:13.684Z,97785.74
2023-03-20T08:21:41.769Z,97780.52
2023-03-20T08:24:10.475Z,97781.27
2023-03-20T08:26:38.734Z,97788.42
2023-03-20T08:29:07.289Z,97784.65
2023-03-20T08:31:35.838Z,97780.20
2023-03-20T08:34:06.976Z,97782.83
2023-03-20T08:36:35.236Z,97781.47
2023-03-20T08:39:03.431Z,97783.48
2023-03-20T08:41:31.679Z,97780.18
2023-03-20T08:44:00.110Z,97776.88
2023-03-20T08:46:28.547Z,97774.80
2023-03-20T08:49:11.158Z,97771.61
2023-03-20T08:51:49.736Z,97772.27
2023-03-20T08:54:19.325Z,97767.66
2023-03-20T08:56:47.667Z,97768.85
2023-03-20T08:59:15.877Z,97765.23
2023-03-20T09:01:49.696Z,97764.20
2023-03-20T09:04:18.988Z,97763.81
2023-03-20T09:06:48.546Z,97761.30
2023-03-20T09:09:18.700Z,97760.70
2023-03-20T09:11:47.577Z,97759.70
2023-03-20T09:14:16.899Z,97760.21
2023-03-20T09:16:45.772Z,97761.98
2023-03-20T09:19:16.590Z,97757.08
2023-03-20T09:21:45.500Z,97759.08
2023-03-20T09:24:16.706Z,97761.48
2023-03-20T09:26:44.884Z,97764.73
2023-03-20T09:29:12.978Z,97762.55
2023-03-20T09:31:41.340Z,97762.10
2023-03-20T09:34:09.546Z,97760.35
2023-03-20T09:36:38.356Z,97758.41
2023-03-20T09:39:06.440Z,97757.13
2023-03-20T09:41:55.684Z,97753.78
2023-03-20T09:44:27.895Z,97751.92
2023-03-20T09:48:01.061Z,97753.98
2023-03-20T09:50:52.831Z,97748.98
2023-03-20T09:53:27.463Z,97744.83
2023-03-20T09:55:57.287Z,97743.69
2023-03-20T09:58:34.405Z,97741.13
2023-03-20T10:01:06.722Z,97740.03
2023-03-20T10:03:52.121Z,97739.77
2023-03-20T10:06:20.279Z,97739.02
2023-03-20T10:08:48.640Z,97740.15
2023-03-20T10:11:23.721Z,97740.60
2023-03-20T10:14:11.582Z,97736.73
2023-03-20T10:16:55.751Z,97735.45
2023-03-20T10:19:31.589Z,97731.22
2023-03-20T10:22:31.419Z,97729.56
2023-03-20T10:25:24.110Z,97724.45
2023-03-20T10:27:59.319Z,97721.85
2023-03-20T10:31:22.178Z,97717.63
2023-03-20T10:34:02.131Z,97713.38
2023-03-20T10:36:48.782Z,97713.86
2023-03-20T10:39:53.258Z,97710.09
2023-03-20T10:42:28.891Z,97712.45
2023-03-20T10:45:07.251Z,97708.46
2023-03-20T10:47:41.036Z,97707.58
2023-03-20T10:50:18.221Z,97699.09
2023-03-20T10:52:51.809Z,97694.08
2023-03-20T10:55:29.338Z,97691.45
2023-03-20T10:58:09.282Z,97686.83
2023-03-20T11:00:38.368Z,97684.23
2023-03-20T11:03:11.212Z,97677.33
2023-03-20T11:05:41.896Z,97674.14
2023-03-20T11:08:16.013Z,97673.17
2023-03-20T11:10:45.097Z,97666.55
2023-03-20T11:13:17.262Z,97665.02
2023-03-20T11:15:46.325Z,97663.35
2023-03-20T11:18:15.876Z,97660.23
2023-03-20T11:20:52.726Z,97657.90
2023-03-20T11:23:26.047Z,97653.02
2023-03-20T11:25:59.597Z,97654.75
2023-03-20T11:28:36.426Z,97652.94
2023-03-20T11:31:13.838Z,97652.35
2023-03-20T11:33:52.289Z,97649.61
2023-03-20T11:36:28.283Z,97649.30
2023-03-20T11:39:14.305Z,97645.48
2023-03-20T11:41:47.639Z,97646.32
2023-03-20T11:44:27.869Z,97642.02
2023-03-20T11:46:59.736Z,97643.68
2023-03-20T11:49:30.244Z,97642.01
2023-03-20T11:52:11.866Z,97639.40
2023-03-20T11:54:48.389Z,97641.94
2023-03-20T11:57:39.373Z,97634.31
2023-03-20T12:00:12.209Z,97629.09
2023-03-20T12:02:42.321Z,97629.05
2023-03-20T12:05:32.656Z,97624.27
2023-03-20T12:08:03.229Z,97620.51
2023-03-20T12:10:41.263Z,97617.77
2023-03-20T12:13:18.065Z,97613.52
2023-03-20T12:15:54.397Z,97610.04
2023-03-20T12:18:37.294Z,97608.63
2023-03-20T12:21:24.867Z,97608.72
2023-03-20T12:24:05.176Z,97601.40
2023-03-20T12:26:46.634Z,97595.48
2023-03-20T12:29:21.739Z,97591.10
2023-03-20T12:31:54.204Z,97592.57
2023-03-20T12:34:32.238Z,97589.69
2023-03-20T12:37:01.517Z,97588.05
2023-03-20T12:39:41.548Z,97585.83
2023-03-20T12:42:37.472Z,97583.36
2023-03-20T12:45:27.580Z,97581.81
2023-03-20T12:48:02.432Z,97583.85
2023-03-20T12:50:39.977Z,97575.18
2023-03-20T12:53:27.259Z,97566.43
2023-03-20T12:56:01.527Z,97564.98
2023-03-20T12:59:08.563Z,97563.31
2023-03-20T13:01:55.740Z,97557.36
2023-03-20T13:04:51.963Z,97552.69
2023-03-20T13:07:41.671Z,97548.33
2023-03-20T13:10:21.185Z,97546.56
2023-03-20T13:13:14.159Z,97538.14
2023-03-20T13:15:52.692Z,97535.83
2023-03-20T13:18:25.986Z,97531.39
2023-03-20T13:21:03.210Z,97529.85
2023-03-20T13:23:46.944Z,97524.23
2023-03-20T13:26:33.803Z,97522.69
2023-03-20T13:29:28.972Z,97519.52
2023-03-20T13:32:16.809Z,97514.73
2023-03-20T13:35:09.444Z,97511.10
2023-03-20T13:37:56.579Z,97509.36
2023-03-20T13:40:35.890Z,97505.49
2023-03-20T13:43:19.946Z,97496.58
2023-03-20T13:45:57.139Z,97496.94
2023-03-20T13:48:34.481Z,97498.96
2023-03-20T13:51:26.203Z,97498.30
2023-03-20T13:54:12.720Z,97493.95
2023-03-20T13:56:47.884Z,97495.66
2023-03-20T13:59:20.367Z,97487.77
2023-03-20T14:02:14.316Z,97485.58
2023-03-20T14:04:44.230Z,97487.63
2023-03-20T14:07:37.028Z,97484.37
2023-03-20T14:10:25.313Z,97484.94
2023-03-20T14:12:59.611Z,97489.50
2023-03-20T14:15:33.336Z,97491.06
2023-03-20T14:18:07.394Z,97493.59
2023-03-20T14:20:43.466Z,97492.35
2023-03-20T14:23:19.169Z,97492.58
2023-03-20T14:26:00.382Z,97488.60
2023-03-20T14:28:51.126Z,97485.63
2023-03-20T14:31:39.988Z,97483.28
2023-03-20T14:34:13.947Z,97479.51
2023-03-20T14:37:23.561Z,97480.02
2023-03-20T14:40:25.641Z,97480.16
2023-03-20T14:43:14.317Z,97475.84
2023-03-20T14:45:52.321Z,97476.70
2023-03-20T14:48:46.236Z,97479.23
2023-03-20T14:51:20.528Z,97478.19
2023-03-20T14:54:19.581Z,97475.85
2023-03-20T14:56:52.179Z,97475.77
2023-03-20T14:59:22.746Z,97474.47
2023-03-20T15:01:57.867Z,97476.70
2023-03-20T15:04:34.930Z,97476.18
2023-03-20T15:07:05.146Z,97469.69
2023-03-20T15:09:37.734Z,97465.06
2023-03-20T15:12:08.902Z,97465.00
2023-03-20T15:14:47.537Z,97465.91
2023-03-20T15:17:23.509Z,97463.55
2023-03-20T15:20:20.946Z,97464.81
2023-03-20T15:22:58.002Z,97465.81
2023-03-20T15:25:47.284Z,97464.87
2023-03-20T15:28:26.772Z,97467.17
2023-03-20T15:30:59.733Z,97471.09
2023-03-20T15:33:42.742Z,97467.73
2023-03-20T15:36:17.361Z,97472.47
2023-03-20T15:38:47.489Z,97471.01
2023-03-20T15:41:33.949Z,97471.14
2023-03-20T15:44:15.019Z,97469.75
2023-03-20T15:46:55.061Z,97466.08
2023-03-20T15:49:24.169Z,97469.13
2023-03-20T15:51:54.686Z,97475.12
2023-03-20T15:54:23.238Z,97477.61
2023-03-20T15:56:53.210Z,97480.19
2023-03-20T15:59:24.949Z,97480.52
2023-03-20T16:01:58.036Z,97484.17
2023-03-20T16:04:27.443Z,97483.64
2023-03-20T16:06:59.299Z,97487.19
2023-03-20T16:09:28.921Z,97490.34
2023-03-20T16:11:58.834Z,97490.23
2023-03-20T16:14:33.719Z,97489.42
2023-03-20T16:17:05.846Z,97487.86
2023-03-20T16:19:37.982Z,97487.67
2023-03-20T16:22:19.041Z,97490.81
2023-03-20T16:24:53.296Z,97490.37
2023-03-20T16:27:32.681Z,97491.71
2023-03-20T16:30:06.327Z,97494.36
2023-03-20T16:32:38.444Z,97495.25
2023-03-20T16:35:22.282Z,97497.40
2023-03-20T16:38:00.045Z,97502.13
2023-03-20T16:40:32.011Z,97503.35
2023-03-20T16:43:18.415Z,97503.89
2023-03-20T16:45:52.899Z,97506.52
2023-03-20T16:48:23.718Z,97505.73
2023-03-20T16:50:59.088Z,97501.58
2023-03-20T16:53:31.850Z,97504.17
2023-03-20T16:56:06.420Z,97508.34
2023-03-20T16:58:35.518Z,97507.98
2023-03-20T17:01:06.490Z,97504.52
2023-03-20T17:03:48.216Z,97506.77
2023-03-20T17:06:19.830Z,97509.63
2023-03-20T17:09:08.217Z,97510.94
2023-03-20T17:11:44.605Z,97511.71
2023-03-20T17:14:12.624Z,97511.53
2023-03-20T17:16:40.887Z,97514.94
2023-03-20T17:19:21.031Z,97519.14
2023-03-20T17:21:50.084Z,97519.84
2023-03-20T17:24:18.529Z,97523.20
2023-03-20T17:26:55.915Z,97522.70
2023-03-20T17:29:24.038Z,97519.73
2023-03-20T17:31:52.791Z,97522.02
2023-03-20T17:34:21.883Z,97528.51
2023-03-20T17:36:51.332Z,97531.34
2023-03-20T17:39:21.666Z,97532.48
2023-03-20T17:41:49.808Z,97530.11
2023-03-20T17:44:20.040Z,97528.05
2023-03-20T17:46:57.954Z,97528.31
2023-03-20T17:49:27.872Z,97531.88
2023-03-20T17:51:56.455Z,97532.73
2023-03-20T17:54:24.798Z,97535.81
2023-03-20T17:56:52.848Z,97537.10
2023-03-20T17:59:20.903Z,97536.19
2023-03-20T18:01:49.063Z,97533.42
2023-03-20T18:04:19.826Z,97533.73
2023-03-20T18:06:49.114Z,97539.27
2023-03-20T18:09:18.384Z,97539.01
2023-03-20T18:11:46.821Z,97540.70
2023-03-20T18:14:18.184Z,97543.23
2023-03-20T18:16:46.796Z,97542.14
2023-03-20T18:19:26.579Z,97539.77
2023-03-20T18:21:57.167Z,97543.67
2023-03-20T18:24:26.327Z,97541.44
2023-03-20T18:26:55.191Z,97546.60
2023-03-20T18:29:23.370Z,97544.17
2023-03-20T18:31:51.667Z,97542.40
2023-03-20T18:34:21.502Z,97543.52
2023-03-20T18:36:51.253Z,97542.15
2023-03-20T18:39:22.992Z,97539.81
2023-03-20T18:41:52.528Z,97537.98
2023-03-20T18:44:20.807Z,97537.15
2023-03-20T18:46:49.426Z,97539.39
2023-03-20T18:49:18.503Z,97545.56
2023-03-20T18:51:47.605Z,97547.46
2023-03-20T18:54:15.869Z,97549.27
2023-03-20T18:56:47.239Z,97548.92
2023-03-20T18:59:16.957Z,97547.98
2023-03-20T19:01:46.895Z,97552.77
2023-03-20T19:04:14.971Z,97552.70
2023-03-20T19:06:42.971Z,97553.79
2023-03-20T19:09:12.306Z,97555.14
2023-03-20T19:11:41.489Z,97552.57
2023-03-20T19:14:09.636Z,97554.45
2023-03-20T19:16:41.522Z,97557.02
2023-03-20T19:19:14.004Z,97560.77
2023-03-20T19:21:42.564Z,97560.12
2023-03-20T19:24:13.803Z,97561.84
2023-03-20T19:26:42.249Z,97562.85
2023-03-20T19:29:11.694Z,97560.80
2023-03-20T19:31:40.075Z,97562.13
2023-03-20T19:34:08.183Z,97562.44
2023-03-20T19:36:42.562Z,97561.70
2023-03-20T19:39:14.091Z,97566.11
2023-03-20T19:41:42.371Z,97565.83
2023-03-20T19:44:10.451Z,97565.32
2023-03-20T19:46:40.784Z,97564.86
2023-03-20T19:49:30.093Z,97566.16
2023-03-20T19:51:59.166Z,97567.79
2023-03-20T19:54:28.648Z,97565.45
2023-03-20T19:56:57.465Z,97565.55
2023-03-20T19:59:26.094Z,97565.34
2023-03-20T20:01:54.786Z,97565.53
2023-03-20T20:04:23.137Z,97565.86
2023-03-20T20:06:55.347Z,97568.86
2023-03-20T20:09:27.285Z,97567.91
2023-03-20T20:11:57.941Z,97569.41
2023-03-20T20:14:26.080Z,97567.55
2023-03-20T20:16:54.672Z,97558.76
2023-03-20T20:19:22.950Z,97555.59
2023-03-20T20:24:39.411Z,97558.90
2023-03-20T20:27:18.639Z,97558.09
2023-03-20T20:29:51.780Z,97558.84
2023-03-20T20:32:23.612Z,97556.99
2023-03-20T20:38:27.071Z,97558.13
2023-03-20T20:40:31.529Z,97557.86
2023-03-20T20:43:02.152Z,97556.05
2023-03-20T20:45:32.347Z,97554.23
2023-03-20T20:48:02.270Z,97550.18
2023-03-20T20:50:32.256Z,97546.40
2023-03-20T20:53:00.917Z,97547.41
2023-03-20T20:55:29.613Z,97547.40
2023-03-20T20:57:58.955Z,97546.27
2023-03-20T21:00:45.398Z,97541.80
2023-03-20T21:03:15.952Z,97542.73
2023-03-20T21:05:44.072Z,97540.67
2023-03-20T21:08:14.424Z,97538.45
2023-03-20T21:10:45.914Z,97535.90
2023-03-20T21:13:15.911Z,97534.81
2023-03-20T21:15:45.678Z,97530.25
2023-03-20T21:18:14.338Z,97530.36
2023-03-20T21:20:42.719Z,97534.60
2023-03-20T21:23:11.875Z,97532.94
2023-03-20T21:25:42.069Z,97530.23
2023-03-20T21:28:11.815Z,97526.61
2023-03-20T21:30:54.590Z,97528.61
2023-03-20T21:33:36.885Z,97528.10
2023-03-20T21:36:06.453Z,97526.50
2023-03-20T21:39:05.841Z,97520.80
2023-03-20T21:41:27.535Z,97523.09
2023-03-20T21:43:56.098Z,97521.95
2023-03-20T21:58:17.549Z,97526.48
2023-03-20T22:03:33.674Z,97521.86
2023-03-20T22:06:59.194Z,97517.88
2023-03-20T22:09:45.790Z,97518.58
2023-03-20T22:12:33.501Z,97519.23
2023-03-20T22:21:06.212Z,97519.53
2023-03-20T22:32:35.241Z,97520.96
2023-03-20T22:35:30.823Z,97524.46
2023-03-20T22:41:00.741Z,97522.22
2023-03-20T22:44:07.820Z,97523.40
2023-03-20T22:46:10.192Z,97522.08
2023-03-20T22:48:44.119Z,97522.69
2023-03-20T22:51:13.770Z,97525.70
2023-03-20T22:53:43.342Z,97526.96
2023-03-20T22:56:13.748Z,97522.80
2023-03-20T22:58:43.463Z,97523.05
2023-03-20T23:01:12.685Z,97524.83
2023-03-20T23:03:42.384Z,97523.41
2023-03-20T23:06:21.020Z,97522.86
2023-03-20T23:08:55.253Z,97523.37
2023-03-20T23:11:27.996Z,97524.59
2023-03-20T23:13:56.464Z,97527.77
2023-03-20T23:16:27.404Z,97529.17
2023-03-20T23:18:55.767Z,97528.70
2023-03-20T23:21:24.486Z,97530.23
2023-03-20T23:23:57.116Z,97525.84
2023-03-20T23:26:25.222Z,97525.23
2023-03-20T23:28:53.542Z,97524.55
2023-03-20T23:31:25.482Z,97523.41
2023-03-20T23:33:56.537Z,97521.97
2023-03-20T23:36:36.486Z,97522.91
2023-03-20T23:39:11.371Z,97522.83
2023-03-20T23:44:28.473Z,97522.34
2023-03-20T23:46:57.777Z,97523.55
2023-03-20T23:49:26.813Z,97522.04
2023-03-20T23:51:55.196Z,97520.25
2023-03-20T23:54:24.124Z,97521.30
2023-03-20T23:56:52.772Z,97514.87
2023-03-20T23:59:22.485Z,97513.23
